Map

Track Data

SID SEASON NUMBER BASIN SUBBASIN NAME ISO_TIME NATURE LAT LON WMO_WIND WMO_PRES WMO_AGENCY TRACK_TYPE DIST2LAND LANDFALL IFLAG USA_AGENCY USA_ATCF_ID USA_LAT USA_LON USA_RECORD USA_STATUS USA_WIND USA_PRES USA_SSHS USA_R34_NE USA_R34_SE USA_R34_SW USA_R34_NW USA_R50_NE USA_R50_SE USA_R50_SW USA_R50_NW USA_R64_NE USA_R64_SE USA_R64_SW USA_R64_NW USA_POCI USA_ROCI USA_RMW USA_EYE TOKYO_LAT TOKYO_LON TOKYO_GRADE TOKYO_WIND TOKYO_PRES TOKYO_R50_DIR TOKYO_R50_LONG TOKYO_R50_SHORT TOKYO_R30_DIR TOKYO_R30_LONG TOKYO_R30_SHORT TOKYO_LAND CMA_LAT CMA_LON CMA_CAT CMA_WIND CMA_PRES HKO_LAT HKO_LON HKO_CAT HKO_WIND HKO_PRES NEWDELHI_LAT NEWDELHI_LON NEWDELHI_GRADE NEWDELHI_WIND NEWDELHI_PRES NEWDELHI_CI NEWDELHI_DP NEWDELHI_POCI REUNION_LAT REUNION_LON REUNION_TYPE REUNION_WIND REUNION_PRES REUNION_TNUM REUNION_CI REUNION_RMW REUNION_R34_NE REUNION_R34_SE REUNION_R34_SW REUNION_R34_NW REUNION_R50_NE REUNION_R50_SE REUNION_R50_SW REUNION_R50_NW REUNION_R64_NE REUNION_R64_SE REUNION_R64_SW REUNION_R64_NW BOM_LAT BOM_LON BOM_TYPE BOM_WIND BOM_PRES BOM_TNUM BOM_CI BOM_RMW BOM_R34_NE BOM_R34_SE BOM_R34_SW BOM_R34_NW BOM_R50_NE BOM_R50_SE BOM_R50_SW BOM_R50_NW BOM_R64_NE BOM_R64_SE BOM_R64_SW BOM_R64_NW BOM_ROCI BOM_POCI BOM_EYE BOM_POS_METHOD BOM_PRES_METHOD NADI_LAT NADI_LON NADI_CAT NADI_WIND NADI_PRES WELLINGTON_LAT WELLINGTON_LON WELLINGTON_WIND WELLINGTON_PRES DS824_LAT DS824_LON DS824_STAGE DS824_WIND DS824_PRES TD9636_LAT TD9636_LON TD9636_STAGE TD9636_WIND TD9636_PRES TD9635_LAT TD9635_LON TD9635_WIND TD9635_PRES TD9635_ROCI NEUMANN_LAT NEUMANN_LON NEUMANN_CLASS NEUMANN_WIND NEUMANN_PRES MLC_LAT MLC_LON MLC_CLASS MLC_WIND MLC_PRES USA_GUST BOM_GUST BOM_GUST_PER REUNION_GUST REUNION_GUST_PER USA_SEAHGT USA_SEARAD_NE USA_SEARAD_SE USA_SEARAD_SW USA_SEARAD_NW STORM_SPEED STORM_DIR
1981086S16183 1981 24 SP MM NOT_NAMED 1981-03-27 00:00:00 NR -16.0000 -177.500 30 997 wellington main 278 278 ________O_____ -1 -16.0000 -177.500 30 997 5 156
1981086S16183 1981 24 SP MM NOT_NAMED 1981-03-27 03:00:00 NR -16.2172 -177.397 main 288 288 ________P_____ -1 -16.2172 -177.397 30 997 5 156
1981086S16183 1981 24 SP MM NOT_NAMED 1981-03-27 06:00:00 NR -16.4376 -177.295 main 299 299 ________P_____ -1 -16.4376 -177.295 30 997 5 156
1981086S16183 1981 24 SP MM NOT_NAMED 1981-03-27 09:00:00 NR -16.6641 -177.196 main 309 308 ________P_____ -1 -16.6641 -177.196 30 997 5 158
1981086S16183 1981 24 SP MM NOT_NAMED 1981-03-27 12:00:00 NR -16.9000 -177.100 30 997 wellington main 319 319 ________O_____ -1 -16.9000 -177.100 30 997 5 159
1981086S16183 1981 24 SP MM NOT_NAMED 1981-03-27 15:00:00 NR -17.1468 -177.008 main 331 331 ________P_____ -1 -17.1468 -177.008 30 997 5 160
1981086S16183 1981 24 SP MM NOT_NAMED 1981-03-27 18:00:00 NR -17.3999 -176.915 main 346 346 ________P_____ -1 -17.3999 -176.915 30 997 5 160
1981086S16183 1981 24 SP MM NOT_NAMED 1981-03-27 21:00:00 NR -17.6531 -176.814 main 364 364 ________P_____ -1 -17.6531 -176.814 30 997 5 158
1981086S16183 1981 24 SP MM NOT_NAMED 1981-03-28 00:00:00 NR -17.9000 -176.700 30 997 wellington main 381 381 ________O_____ -1 -17.9000 -176.700 30 997 5 154
1981086S16183 1981 24 SP MM NOT_NAMED 1981-03-28 03:00:00 NR -18.1403 -176.564 main 398 398 ________P_____ -1 -18.1403 -176.564 30 997 5 150
1981086S16183 1981 24 SP MM NOT_NAMED 1981-03-28 06:00:00 NR -18.3725 -176.415 main 431 431 ________P_____ -1 -18.3725 -176.415 30 997 5 147
1981086S16183 1981 24 SP MM NOT_NAMED 1981-03-28 09:00:00 NR -18.5934 -176.258 main 450 450 ________P_____ -1 -18.5934 -176.258 30 997 5 145
1981086S16183 1981 24 SP MM NOT_NAMED 1981-03-28 12:00:00 NR -18.8000 -176.100 30 997 wellington main 479 479 ________O_____ -1 -18.8000 -176.100 30 997 5 144
1981086S16183 1981 24 SP MM NOT_NAMED 1981-03-28 15:00:00 NR -18.9770 -175.966 main 498 498 ________P_____ -1 -18.9770 -175.966 30 997 4 143
1981086S16183 1981 24 SP MM NOT_NAMED 1981-03-28 18:00:00 NR -19.1423 -175.829 main 522 522 ________P_____ -1 -19.1423 -175.829 30 997 4 141
1981086S16183 1981 24 SP MM NOT_NAMED 1981-03-28 21:00:00 NR -19.3114 -175.678 main 542 542 ________P_____ -1 -19.3114 -175.678 30 997 5 139
1981086S16183 1981 24 SP MM NOT_NAMED 1981-03-29 00:00:00 NR -19.5000 -175.500 30 997 wellington main 572 572 ________O_____ -1 -19.5000 -175.500 30 997 5 139
1981086S16183 1981 24 SP MM NOT_NAMED 1981-03-29 03:00:00 NR -19.7078 -175.315 main 601 601 ________P_____ -1 -19.7078 -175.315 30 997 6 139
1981086S16183 1981 24 SP MM NOT_NAMED 1981-03-29 06:00:00 NR -19.9394 -175.096 main 631 631 ________P_____ -1 -19.9394 -175.096 30 997 7 137
1981086S16183 1981 24 SP MM NOT_NAMED 1981-03-29 09:00:00 NR -20.2013 -174.830 main 675 675 ________P_____ -1 -20.2013 -174.830 30 997 8 135
1981086S16183 1981 24 SP MM NOT_NAMED 1981-03-29 12:00:00 NR -20.5000 -174.500 30 997 wellington main 720 720 ________O_____ -1 -20.5000 -174.500 30 997 9 134
1981086S16183 1981 24 SP MM NOT_NAMED 1981-03-29 15:00:00 NR -20.8388 -174.118 main 773 773 ________P_____ -1 -20.8388 -174.118 31 996 11 133
1981086S16183 1981 24 SP MM NOT_NAMED 1981-03-29 18:00:00 NR -21.2120 -173.669 main 833 833 ________P_____ -1 -21.2120 -173.669 32 996 12 131
1981086S16183 1981 24 SP MM NOT_NAMED 1981-03-29 21:00:00 NR -21.6041 -173.161 main 875 874 ________P_____ -1 -21.6041 -173.161 33 995 13 128
1981086S16183 1981 24 SP MM NOT_NAMED 1981-03-30 00:00:00 NR -22.0000 -172.600 35 995 wellington main 917 917 ________O_____ -1 -22.0000 -172.600 35 995 13 124
1981086S16183 1981 24 SP MM NOT_NAMED 1981-03-30 03:00:00 NR -22.3347 -171.994 main 951 951 ________P_____ -1 -22.3347 -171.994 35 995 13 120
1981086S16183 1981 24 SP MM NOT_NAMED 1981-03-30 06:00:00 NR -22.6754 -171.342 main 1000 1000 ________P_____ -1 -22.6754 -171.342 35 995 14 120
1981086S16183 1981 24 SP MM NOT_NAMED 1981-03-30 09:00:00 NR -23.0533 -170.669 main 1052 1052 ________P_____ -1 -23.0533 -170.669 35 995 15 124
1981086S16183 1981 24 SP MM NOT_NAMED 1981-03-30 12:00:00 NR -23.5000 -170.000 35 995 wellington main 1109 1109 ________O_____ -1 -23.5000 -170.000 35 995 14 128
1981086S16183 1981 24 SP MM NOT_NAMED 1981-03-30 15:00:00 NR -23.9486 -169.439 main 1167 1167 ________P_____ -1 -23.9486 -169.439 35 995 14 134
1981086S16183 1981 24 SP MM NOT_NAMED 1981-03-30 18:00:00 NR -24.4828 -168.876 main 1245 1245 ________P_____ -1 -24.4828 -168.876 35 995 16 138
1981086S16183 1981 24 SP MM NOT_NAMED 1981-03-30 21:00:00 NR -25.1507 -168.251 main 1338 1338 ________P_____ -1 -25.1507 -168.251 35 995 20 141
1981086S16183 1981 24 SP MM NOT_NAMED 1981-03-31 00:00:00 NR -26.0000 -167.500 35 995 wellington main 1449 1449 ________O_____ -1 -26.0000 -167.500 35 995 24 142
1981086S16183 1981 24 SP MM NOT_NAMED 1981-03-31 03:00:00 NR -27.0599 -166.574 main 1596 1596 ________P_____ -1 -27.0599 -166.574 33 995 29 142
1981086S16183 1981 24 SP MM NOT_NAMED 1981-03-31 06:00:00 NR -28.2877 -165.491 main 1762 1762 ________P_____ -1 -28.2877 -165.491 32 996 33 142
1981086S16183 1981 24 SP MM NOT_NAMED 1981-03-31 09:00:00 NR -29.6217 -164.285 main 1815 1812 ________P_____ -1 -29.6217 -164.285 31 996 35 141
1981086S16183 1981 24 SP MM NOT_NAMED 1981-03-31 12:00:00 NR -31.0000 -163.000 30 997 wellington main 1839 ________O_____ -1 -31.0000 -163.000 30 997 35 141

Digital Typhoon Data and Search

About IBTrACS Database

This database is a web-friendly format of International Best Track Archive for Climate Stewardship (IBTrACS), a global best track data archive curated by NOAA dating back to 1842.

Updated: 2021-11-26